Terminal Aerodrome Forecast
Issued by NWS Sioux Falls, SD

Home | Current Version | Previous Version | Graphics & Text | Print | Product List | Glossary On
Versions: 1 2 3 4 5 6 7 8 9 10 11 12 13
841
FTUS43 KFSD 262320
TAFFSD
TAF
KFSD 262320Z 2700/2724 14006KT P6SM BKN045
     FM270400 12006KT P6SM SCT035 OVC120
     FM270900 17004KT 6SM BR OVC050
     FM271100 16004KT 5SM BR BKN015 OVC025
     FM271600 18007KT P6SM SCT025 SCT120
     FM271900 18011KT P6SM SCT030=

USA.gov is the U.S. government's official web portal to all federal, state and local government web resources and services.